ěÝzenÝ letovÚho provozu ╚eskÚ republiky
Letiste: LKPR Aktualizace: 06.07.2022 06:09:32  UTC
 METAR LKPR 06.07. 06:00 RRA
METAR LKPR 060600Z 34005KT CAVOK 15/11 Q1021 NOSIG=
 TAF LKPR 06.07. 05:00 ...
TAF LKPR 060500Z 0606/0712 33009KT CAVOK      PROB30 TEMPO 0606/0614 8000 SHRA SCT030TCU      BECMG 0622/0700 25008KT      BECMG 0708/0710 23010G22KT 8000 RA BKN025=